sensor_id;sensor_type;location;lat;lon;timestamp;pressure;altitude;pressure_sealevel;temperature;humidity
12182;BME280;6154;51.550;12.138;2023-02-17T00:00:14;100986.47;;;13.78;56.80
12182;BME280;6154;51.550;12.138;2023-02-17T00:02:42;100982.34;;;13.72;57.07
12182;BME280;6154;51.550;12.138;2023-02-17T00:05:10;100987.09;;;13.67;57.12
12182;BME280;6154;51.550;12.138;2023-02-17T00:07:39;100970.38;;;13.65;57.19
12182;BME280;6154;51.550;12.138;2023-02-17T00:10:08;100968.16;;;13.58;57.68
12182;BME280;6154;51.550;12.138;2023-02-17T00:12:37;100969.78;;;13.60;57.60
12182;BME280;6154;51.550;12.138;2023-02-17T00:15:06;100960.09;;;13.59;57.66
12182;BME280;6154;51.550;12.138;2023-02-17T00:17:34;100947.25;;;13.51;57.95
12182;BME280;6154;51.550;12.138;2023-02-17T00:20:03;100953.25;;;13.55;57.76
12182;BME280;6154;51.550;12.138;2023-02-17T00:22:32;100945.19;;;13.57;57.75
12182;BME280;6154;51.550;12.138;2023-02-17T00:25:00;100940.72;;;13.57;57.64
12182;BME280;6154;51.550;12.138;2023-02-17T00:27:28;100931.13;;;13.55;57.72
12182;BME280;6154;51.550;12.138;2023-02-17T00:29:58;100932.56;;;13.60;57.50
12182;BME280;6154;51.550;12.138;2023-02-17T00:32:26;100930.28;;;13.54;57.94
12182;BME280;6154;51.550;12.138;2023-02-17T00:34:55;100932.00;;;13.55;58.04
12182;BME280;6154;51.550;12.138;2023-02-17T00:37:24;100925.44;;;13.61;57.51
12182;BME280;6154;51.550;12.138;2023-02-17T00:39:53;100925.06;;;13.67;57.32
12182;BME280;6154;51.550;12.138;2023-02-17T00:42:22;100922.41;;;13.67;57.20
12182;BME280;6154;51.550;12.138;2023-02-17T00:44:50;100923.06;;;13.70;57.23
12182;BME280;6154;51.550;12.138;2023-02-17T00:47:20;100911.41;;;13.73;57.32
12182;BME280;6154;51.550;12.138;2023-02-17T00:49:48;100909.78;;;13.70;57.33
12182;BME280;6154;51.550;12.138;2023-02-17T00:52:17;100908.06;;;13.69;57.39
12182;BME280;6154;51.550;12.138;2023-02-17T00:54:46;100927.28;;;13.74;57.37
12182;BME280;6154;51.550;12.138;2023-02-17T00:57:14;100935.72;;;13.81;57.19
12182;BME280;6154;51.550;12.138;2023-02-17T00:59:42;100935.72;;;13.81;57.32
12182;BME280;6154;51.550;12.138;2023-02-17T01:02:10;100924.94;;;13.84;56.99
12182;BME280;6154;51.550;12.138;2023-02-17T01:04:40;100924.13;;;13.82;57.16
12182;BME280;6154;51.550;12.138;2023-02-17T01:07:08;100927.66;;;13.82;57.10
12182;BME280;6154;51.550;12.138;2023-02-17T01:09:36;100928.44;;;13.85;57.05
12182;BME280;6154;51.550;12.138;2023-02-17T01:12:04;100925.69;;;13.86;57.05
12182;BME280;6154;51.550;12.138;2023-02-17T01:14:32;100914.28;;;13.84;57.09
12182;BME280;6154;51.550;12.138;2023-02-17T01:17:01;100914.34;;;13.82;57.22
12182;BME280;6154;51.550;12.138;2023-02-17T01:19:29;100913.59;;;13.80;57.40
12182;BME280;6154;51.550;12.138;2023-02-17T01:21:58;100910.84;;;13.82;57.40
12182;BME280;6154;51.550;12.138;2023-02-17T01:24:26;100907.31;;;13.81;57.40
12182;BME280;6154;51.550;12.138;2023-02-17T01:26:55;100907.16;;;13.85;57.39
12182;BME280;6154;51.550;12.138;2023-02-17T01:29:26;100901.94;;;13.83;57.36
12182;BME280;6154;51.550;12.138;2023-02-17T01:31:54;100897.28;;;13.87;57.29
12182;BME280;6154;51.550;12.138;2023-02-17T01:34:22;100892.91;;;13.86;57.42
12182;BME280;6154;51.550;12.138;2023-02-17T01:36:50;100903.53;;;13.86;57.53
12182;BME280;6154;51.550;12.138;2023-02-17T01:39:20;100895.94;;;13.79;57.45
12182;BME280;6154;51.550;12.138;2023-02-17T01:41:49;100889.19;;;13.88;57.43
12182;BME280;6154;51.550;12.138;2023-02-17T01:44:21;100892.25;;;13.96;57.02
12182;BME280;6154;51.550;12.138;2023-02-17T01:46:51;100881.78;;;13.93;57.23
12182;BME280;6154;51.550;12.138;2023-02-17T01:49:29;100881.50;;;13.98;57.04
12182;BME280;6154;51.550;12.138;2023-02-17T01:52:05;100881.59;;;13.96;57.53
12182;BME280;6154;51.550;12.138;2023-02-17T01:54:40;100877.87;;;13.99;57.26
12182;BME280;6154;51.550;12.138;2023-02-17T01:57:10;100871.72;;;13.98;57.44
12182;BME280;6154;51.550;12.138;2023-02-17T01:59:39;100872.19;;;14.05;56.98
12182;BME280;6154;51.550;12.138;2023-02-17T02:02:08;100871.06;;;13.95;57.64
12182;BME280;6154;51.550;12.138;2023-02-17T02:04:40;100877.00;;;13.70;58.52
12182;BME280;6154;51.550;12.138;2023-02-17T02:07:13;100862.94;;;13.68;59.25
12182;BME280;6154;51.550;12.138;2023-02-17T02:09:49;100856.97;;;13.78;59.26
12182;BME280;6154;51.550;12.138;2023-02-17T02:12:19;100851.63;;;13.93;58.96
12182;BME280;6154;51.550;12.138;2023-02-17T02:14:49;100837.78;;;13.88;59.50
12182;BME280;6154;51.550;12.138;2023-02-17T02:17:25;100832.09;;;13.94;58.93
12182;BME280;6154;51.550;12.138;2023-02-17T02:20:27;100833.41;;;14.01;58.51
12182;BME280;6154;51.550;12.138;2023-02-17T02:23:27;100821.16;;;13.98;59.54
12182;BME280;6154;51.550;12.138;2023-02-17T02:26:37;100821.72;;;13.89;60.16
12182;BME280;6154;51.550;12.138;2023-02-17T02:32:25;100814.31;;;13.94;59.84
12182;BME280;6154;51.550;12.138;2023-02-17T02:35:02;100799.59;;;13.74;61.68
12182;BME280;6154;51.550;12.138;2023-02-17T02:37:37;100799.19;;;13.80;61.36
12182;BME280;6154;51.550;12.138;2023-02-17T02:40:07;100791.81;;;13.86;61.40
12182;BME280;6154;51.550;12.138;2023-02-17T02:42:39;100791.22;;;13.95;60.23
12182;BME280;6154;51.550;12.138;2023-02-17T02:45:09;100788.94;;;13.89;60.84
12182;BME280;6154;51.550;12.138;2023-02-17T02:47:45;100787.53;;;13.83;61.11
12182;BME280;6154;51.550;12.138;2023-02-17T02:50:16;100780.09;;;13.88;60.94
12182;BME280;6154;51.550;12.138;2023-02-17T02:53:03;100779.25;;;13.88;60.71
12182;BME280;6154;51.550;12.138;2023-02-17T02:55:45;100770.69;;;13.82;61.72
12182;BME280;6154;51.550;12.138;2023-02-17T02:58:18;100775.84;;;13.86;61.89
12182;BME280;6154;51.550;12.138;2023-02-17T03:00:54;100769.53;;;14.01;60.54
12182;BME280;6154;51.550;12.138;2023-02-17T03:03:31;100769.75;;;13.98;60.87
12182;BME280;6154;51.550;12.138;2023-02-17T03:06:07;100769.09;;;13.94;61.46
12182;BME280;6154;51.550;12.138;2023-02-17T03:08:42;100769.47;;;13.88;61.66
12182;BME280;6154;51.550;12.138;2023-02-17T03:11:15;100770.22;;;13.90;61.63
12182;BME280;6154;51.550;12.138;2023-02-17T03:14:00;100768.72;;;13.86;62.05
12182;BME280;6154;51.550;12.138;2023-02-17T03:16:29;100763.84;;;13.93;61.62
12182;BME280;6154;51.550;12.138;2023-02-17T03:18:59;100757.25;;;14.13;60.50
12182;BME280;6154;51.550;12.138;2023-02-17T03:21:33;100769.25;;;14.05;60.69
12182;BME280;6154;51.550;12.138;2023-02-17T03:24:04;100751.69;;;14.03;61.12
12182;BME280;6154;51.550;12.138;2023-02-17T03:26:32;100748.13;;;14.02;61.30
12182;BME280;6154;51.550;12.138;2023-02-17T03:29:00;100761.44;;;14.17;60.40
12182;BME280;6154;51.550;12.138;2023-02-17T03:31:29;100757.75;;;13.91;61.97
12182;BME280;6154;51.550;12.138;2023-02-17T03:33:57;100763.47;;;13.99;61.80
12182;BME280;6154;51.550;12.138;2023-02-17T03:36:27;100765.50;;;14.22;60.48
12182;BME280;6154;51.550;12.138;2023-02-17T03:38:56;100757.50;;;14.22;60.26
12182;BME280;6154;51.550;12.138;2023-02-17T03:41:25;100764.56;;;14.09;60.87
12182;BME280;6154;51.550;12.138;2023-02-17T03:43:53;100755.41;;;14.27;60.02
12182;BME280;6154;51.550;12.138;2023-02-17T03:46:21;100759.28;;;14.36;59.57
12182;BME280;6154;51.550;12.138;2023-02-17T03:48:50;100752.00;;;14.25;60.38
12182;BME280;6154;51.550;12.138;2023-02-17T03:51:20;100761.38;;;14.31;60.01
12182;BME280;6154;51.550;12.138;2023-02-17T03:53:51;100765.34;;;14.38;59.41
12182;BME280;6154;51.550;12.138;2023-02-17T03:56:19;100765.22;;;14.27;60.05
12182;BME280;6154;51.550;12.138;2023-02-17T03:58:47;100768.41;;;14.32;60.05
12182;BME280;6154;51.550;12.138;2023-02-17T04:01:16;100769.72;;;14.39;59.38
12182;BME280;6154;51.550;12.138;2023-02-17T04:03:45;100760.69;;;14.42;59.36
12182;BME280;6154;51.550;12.138;2023-02-17T04:06:13;100766.00;;;14.42;59.52
12182;BME280;6154;51.550;12.138;2023-02-17T04:08:41;100754.38;;;14.43;59.36
12182;BME280;6154;51.550;12.138;2023-02-17T04:11:11;100758.00;;;14.42;59.32
12182;BME280;6154;51.550;12.138;2023-02-17T04:13:40;100744.69;;;14.42;59.32
12182;BME280;6154;51.550;12.138;2023-02-17T04:16:09;100747.28;;;14.43;59.29
12182;BME280;6154;51.550;12.138;2023-02-17T04:18:37;100739.28;;;14.43;59.27
12182;BME280;6154;51.550;12.138;2023-02-17T04:21:06;100740.94;;;14.46;59.18
12182;BME280;6154;51.550;12.138;2023-02-17T04:23:35;100735.69;;;14.44;59.40
12182;BME280;6154;51.550;12.138;2023-02-17T04:26:06;100736.44;;;14.46;59.33
12182;BME280;6154;51.550;12.138;2023-02-17T04:28:52;100736.72;;;14.42;59.64
12182;BME280;6154;51.550;12.138;2023-02-17T04:31:32;100735.84;;;14.41;60.07
12182;BME280;6154;51.550;12.138;2023-02-17T04:34:07;100738.53;;;14.14;61.34
12182;BME280;6154;51.550;12.138;2023-02-17T04:36:36;100739.00;;;14.48;59.53
12182;BME280;6154;51.550;12.138;2023-02-17T04:39:04;100735.19;;;14.52;59.45
12182;BME280;6154;51.550;12.138;2023-02-17T04:41:33;100737.66;;;14.55;59.15
12182;BME280;6154;51.550;12.138;2023-02-17T04:44:03;100728.72;;;14.56;58.97
12182;BME280;6154;51.550;12.138;2023-02-17T04:46:31;100721.69;;;14.55;59.09
12182;BME280;6154;51.550;12.138;2023-02-17T04:49:08;100721.84;;;14.52;59.20
12182;BME280;6154;51.550;12.138;2023-02-17T04:51:45;100716.47;;;14.53;59.50
12182;BME280;6154;51.550;12.138;2023-02-17T04:54:19;100719.88;;;14.55;59.27
12182;BME280;6154;51.550;12.138;2023-02-17T04:56:55;100717.38;;;14.52;59.42
12182;BME280;6154;51.550;12.138;2023-02-17T04:59:35;100711.78;;;14.57;59.24
12182;BME280;6154;51.550;12.138;2023-02-17T05:02:04;100720.59;;;14.57;59.38
12182;BME280;6154;51.550;12.138;2023-02-17T05:04:33;100715.72;;;14.64;59.01
12182;BME280;6154;51.550;12.138;2023-02-17T05:07:01;100713.47;;;14.58;59.29
12182;BME280;6154;51.550;12.138;2023-02-17T05:09:29;100706.78;;;14.65;59.01
12182;BME280;6154;51.550;12.138;2023-02-17T05:11:57;100706.56;;;14.68;58.97
12182;BME280;6154;51.550;12.138;2023-02-17T05:14:25;100704.53;;;14.59;59.47
12182;BME280;6154;51.550;12.138;2023-02-17T05:16:55;100697.38;;;14.59;59.79
12182;BME280;6154;51.550;12.138;2023-02-17T05:19:23;100694.72;;;14.59;59.86
12182;BME280;6154;51.550;12.138;2023-02-17T05:21:51;100695.28;;;14.64;59.67
12182;BME280;6154;51.550;12.138;2023-02-17T05:24:19;100684.28;;;14.56;60.23
12182;BME280;6154;51.550;12.138;2023-02-17T05:26:47;100673.19;;;14.62;60.08
12182;BME280;6154;51.550;12.138;2023-02-17T05:29:15;100669.28;;;14.68;59.88
12182;BME280;6154;51.550;12.138;2023-02-17T05:31:44;100684.28;;;14.69;59.96
12182;BME280;6154;51.550;12.138;2023-02-17T05:34:13;100674.09;;;14.76;59.64
12182;BME280;6154;51.550;12.138;2023-02-17T05:36:42;100689.09;;;14.77;59.62
12182;BME280;6154;51.550;12.138;2023-02-17T05:39:10;100697.09;;;14.77;59.54
12182;BME280;6154;51.550;12.138;2023-02-17T05:41:38;100697.84;;;14.79;59.62
12182;BME280;6154;51.550;12.138;2023-02-17T05:44:06;100704.47;;;14.73;59.78
12182;BME280;6154;51.550;12.138;2023-02-17T05:46:35;100699.53;;;14.80;59.81
12182;BME280;6154;51.550;12.138;2023-02-17T05:49:03;100702.09;;;14.81;59.65
12182;BME280;6154;51.550;12.138;2023-02-17T05:51:33;100701.69;;;14.75;60.48
12182;BME280;6154;51.550;12.138;2023-02-17T05:54:01;100700.09;;;14.85;59.82
12182;BME280;6154;51.550;12.138;2023-02-17T05:56:30;100698.91;;;14.76;60.52
12182;BME280;6154;51.550;12.138;2023-02-17T05:58:58;100705.31;;;14.86;59.88
12182;BME280;6154;51.550;12.138;2023-02-17T06:01:26;100705.84;;;14.91;59.64
12182;BME280;6154;51.550;12.138;2023-02-17T06:03:55;100703.28;;;14.90;59.87
12182;BME280;6154;51.550;12.138;2023-02-17T06:06:23;100691.25;;;14.84;60.06
12182;BME280;6154;51.550;12.138;2023-02-17T06:08:52;100693.69;;;14.87;59.94
12182;BME280;6154;51.550;12.138;2023-02-17T06:11:21;100686.56;;;14.88;59.92
12182;BME280;6154;51.550;12.138;2023-02-17T06:13:49;100686.66;;;14.86;60.15
12182;BME280;6154;51.550;12.138;2023-02-17T06:16:17;100689.75;;;14.80;60.34
12182;BME280;6154;51.550;12.138;2023-02-17T06:18:45;100679.19;;;14.91;59.97
12182;BME280;6154;51.550;12.138;2023-02-17T06:21:14;100676.41;;;14.93;59.96
12182;BME280;6154;51.550;12.138;2023-02-17T06:23:42;100670.13;;;14.81;60.71
12182;BME280;6154;51.550;12.138;2023-02-17T06:26:11;100678.22;;;14.92;60.22
12182;BME280;6154;51.550;12.138;2023-02-17T06:28:40;100671.84;;;14.95;60.16
12182;BME280;6154;51.550;12.138;2023-02-17T06:31:08;100679.41;;;15.01;59.82
12182;BME280;6154;51.550;12.138;2023-02-17T06:33:37;100665.03;;;15.04;59.87
12182;BME280;6154;51.550;12.138;2023-02-17T06:36:06;100671.31;;;15.03;59.97
12182;BME280;6154;51.550;12.138;2023-02-17T06:38:34;100665.03;;;15.04;60.02
12182;BME280;6154;51.550;12.138;2023-02-17T06:41:03;100659.59;;;15.05;60.03
12182;BME280;6154;51.550;12.138;2023-02-17T06:43:32;100646.91;;;15.09;59.84
12182;BME280;6154;51.550;12.138;2023-02-17T06:46:00;100652.66;;;15.03;60.29
12182;BME280;6154;51.550;12.138;2023-02-17T06:48:29;100642.31;;;15.11;59.92
12182;BME280;6154;51.550;12.138;2023-02-17T06:50:59;100641.16;;;15.15;59.83
12182;BME280;6154;51.550;12.138;2023-02-17T06:53:27;100647.72;;;15.22;59.53
12182;BME280;6154;51.550;12.138;2023-02-17T06:55:55;100644.31;;;15.20;59.67
12182;BME280;6154;51.550;12.138;2023-02-17T06:58:24;100644.00;;;15.12;60.29
12182;BME280;6154;51.550;12.138;2023-02-17T07:00:53;100647.00;;;15.20;60.00
12182;BME280;6154;51.550;12.138;2023-02-17T07:03:21;100633.03;;;15.16;60.07
12182;BME280;6154;51.550;12.138;2023-02-17T07:05:49;100635.16;;;15.24;59.98
12182;BME280;6154;51.550;12.138;2023-02-17T07:08:18;100636.87;;;15.25;59.95
12182;BME280;6154;51.550;12.138;2023-02-17T07:10:46;100631.72;;;15.22;60.13
12182;BME280;6154;51.550;12.138;2023-02-17T07:13:14;100644.75;;;15.27;60.18
12182;BME280;6154;51.550;12.138;2023-02-17T07:15:42;100649.00;;;15.29;60.01
12182;BME280;6154;51.550;12.138;2023-02-17T07:18:12;100647.66;;;15.23;60.34
12182;BME280;6154;51.550;12.138;2023-02-17T07:20:40;100655.84;;;15.33;60.00
12182;BME280;6154;51.550;12.138;2023-02-17T07:23:08;100655.66;;;15.23;60.40
12182;BME280;6154;51.550;12.138;2023-02-17T07:25:37;100651.25;;;15.35;60.11
12182;BME280;6154;51.550;12.138;2023-02-17T07:28:05;100657.75;;;15.31;60.40
12182;BME280;6154;51.550;12.138;2023-02-17T07:30:36;100657.63;;;15.45;59.73
12182;BME280;6154;51.550;12.138;2023-02-17T07:33:05;100663.59;;;15.49;59.73
12182;BME280;6154;51.550;12.138;2023-02-17T07:35:37;100661.47;;;15.54;59.53
12182;BME280;6154;51.550;12.138;2023-02-17T07:38:07;100667.13;;;15.37;60.30
12182;BME280;6154;51.550;12.138;2023-02-17T07:40:36;100658.66;;;15.56;59.69
12182;BME280;6154;51.550;12.138;2023-02-17T07:43:04;100654.13;;;15.45;60.37
12182;BME280;6154;51.550;12.138;2023-02-17T07:45:32;100640.13;;;15.54;60.01
12182;BME280;6154;51.550;12.138;2023-02-17T07:48:00;100635.62;;;15.55;59.98
12182;BME280;6154;51.550;12.138;2023-02-17T07:50:28;100623.34;;;15.52;60.17
12182;BME280;6154;51.550;12.138;2023-02-17T07:52:58;100619.50;;;15.56;60.27
12182;BME280;6154;51.550;12.138;2023-02-17T07:55:27;100622.72;;;15.48;60.84
12182;BME280;6154;51.550;12.138;2023-02-17T07:57:55;100617.56;;;15.71;59.94
12182;BME280;6154;51.550;12.138;2023-02-17T08:00:23;100614.38;;;15.66;60.44
12182;BME280;6154;51.550;12.138;2023-02-17T08:02:51;100618.75;;;15.67;60.33
12182;BME280;6154;51.550;12.138;2023-02-17T08:05:20;100623.97;;;15.68;60.55
12182;BME280;6154;51.550;12.138;2023-02-17T08:07:48;100610.53;;;15.70;60.79
12182;BME280;6154;51.550;12.138;2023-02-17T08:10:38;100598.50;;;15.88;60.06
12182;BME280;6154;51.550;12.138;2023-02-17T08:13:24;100608.72;;;15.94;60.21
12182;BME280;6154;51.550;12.138;2023-02-17T08:15:53;100596.37;;;16.04;59.92
12182;BME280;6154;51.550;12.138;2023-02-17T08:18:21;100585.38;;;15.85;60.61
12182;BME280;6154;51.550;12.138;2023-02-17T08:20:49;100582.19;;;16.04;60.22
12182;BME280;6154;51.550;12.138;2023-02-17T08:23:18;100583.03;;;16.04;60.24
12182;BME280;6154;51.550;12.138;2023-02-17T08:25:47;100582.34;;;16.14;59.99
12182;BME280;6154;51.550;12.138;2023-02-17T08:28:16;100595.41;;;16.05;60.32
12182;BME280;6154;51.550;12.138;2023-02-17T08:30:44;100590.16;;;16.28;59.58
12182;BME280;6154;51.550;12.138;2023-02-17T08:33:12;100598.00;;;16.18;59.89
12182;BME280;6154;51.550;12.138;2023-02-17T08:35:44;100596.75;;;16.35;59.49
12182;BME280;6154;51.550;12.138;2023-02-17T08:38:12;100585.06;;;16.25;59.44
12182;BME280;6154;51.550;12.138;2023-02-17T08:40:40;100581.28;;;16.27;59.66
12182;BME280;6154;51.550;12.138;2023-02-17T08:43:10;100579.22;;;16.31;59.54
12182;BME280;6154;51.550;12.138;2023-02-17T08:45:38;100576.56;;;16.31;59.54
12182;BME280;6154;51.550;12.138;2023-02-17T08:48:06;100578.09;;;16.22;59.72
12182;BME280;6154;51.550;12.138;2023-02-17T08:50:34;100572.94;;;16.43;59.44
12182;BME280;6154;51.550;12.138;2023-02-17T08:53:02;100571.44;;;16.28;59.77
12182;BME280;6154;51.550;12.138;2023-02-17T08:55:30;100558.09;;;16.28;59.34
12182;BME280;6154;51.550;12.138;2023-02-17T08:58:16;100550.62;;;16.44;59.16
12182;BME280;6154;51.550;12.138;2023-02-17T09:00:44;100563.22;;;16.53;59.06
12182;BME280;6154;51.550;12.138;2023-02-17T09:03:12;100570.25;;;16.43;59.47
12182;BME280;6154;51.550;12.138;2023-02-17T09:05:41;100564.72;;;16.57;59.01
12182;BME280;6154;51.550;12.138;2023-02-17T09:08:09;100571.72;;;16.36;59.35
12182;BME280;6154;51.550;12.138;2023-02-17T09:10:38;100573.63;;;16.69;58.80
12182;BME280;6154;51.550;12.138;2023-02-17T09:13:06;100568.94;;;16.37;59.77
12182;BME280;6154;51.550;12.138;2023-02-17T09:15:35;100566.88;;;16.52;59.22
12182;BME280;6154;51.550;12.138;2023-02-17T09:18:04;100562.03;;;16.46;59.23
12182;BME280;6154;51.550;12.138;2023-02-17T09:20:32;100551.59;;;16.54;59.13
12182;BME280;6154;51.550;12.138;2023-02-17T09:23:00;100550.13;;;16.50;59.25
12182;BME280;6154;51.550;12.138;2023-02-17T09:25:28;100542.16;;;16.73;58.81
12182;BME280;6154;51.550;12.138;2023-02-17T09:27:56;100527.69;;;16.64;58.75
12182;BME280;6154;51.550;12.138;2023-02-17T09:30:26;100505.22;;;16.55;58.68
12182;BME280;6154;51.550;12.138;2023-02-17T09:32:55;100510.91;;;16.62;58.90
12182;BME280;6154;51.550;12.138;2023-02-17T09:35:24;100508.50;;;16.70;58.90
12182;BME280;6154;51.550;12.138;2023-02-17T09:37:52;100502.66;;;16.65;58.77
12182;BME280;6154;51.550;12.138;2023-02-17T09:40:23;100504.09;;;16.24;59.41
12182;BME280;6154;51.550;12.138;2023-02-17T09:42:55;100510.78;;;16.52;59.08
12182;BME280;6154;51.550;12.138;2023-02-17T09:45:25;100503.03;;;16.72;58.54
12182;BME280;6154;51.550;12.138;2023-02-17T09:47:58;100498.44;;;16.74;58.63
12182;BME280;6154;51.550;12.138;2023-02-17T09:50:31;100506.22;;;16.77;58.63
12182;BME280;6154;51.550;12.138;2023-02-17T09:53:05;100503.16;;;16.81;58.78
12182;BME280;6154;51.550;12.138;2023-02-17T09:55:40;100492.47;;;16.70;58.76
12182;BME280;6154;51.550;12.138;2023-02-17T09:58:12;100503.28;;;16.69;58.89
12182;BME280;6154;51.550;12.138;2023-02-17T10:00:45;100496.72;;;16.73;58.74
12182;BME280;6154;51.550;12.138;2023-02-17T10:03:18;100488.53;;;16.63;58.33
12182;BME280;6154;51.550;12.138;2023-02-17T10:05:52;100485.69;;;16.77;58.23
12182;BME280;6154;51.550;12.138;2023-02-17T10:08:26;100479.56;;;17.09;58.08
12182;BME280;6154;51.550;12.138;2023-02-17T10:11:01;100484.09;;;16.86;58.11
12182;BME280;6154;51.550;12.138;2023-02-17T10:13:33;100473.34;;;17.08;58.17
12182;BME280;6154;51.550;12.138;2023-02-17T10:16:08;100481.59;;;17.16;58.30
12182;BME280;6154;51.550;12.138;2023-02-17T10:18:43;100480.59;;;17.29;58.09
12182;BME280;6154;51.550;12.138;2023-02-17T10:21:16;100468.75;;;16.99;58.04
12182;BME280;6154;51.550;12.138;2023-02-17T10:23:48;100465.03;;;17.22;58.19
12182;BME280;6154;51.550;12.138;2023-02-17T10:26:23;100467.22;;;17.61;57.56
12182;BME280;6154;51.550;12.138;2023-02-17T10:28:57;100460.72;;;17.42;57.87
12182;BME280;6154;51.550;12.138;2023-02-17T10:31:38;100466.09;;;17.74;57.56
12182;BME280;6154;51.550;12.138;2023-02-17T10:34:20;100468.19;;;17.60;57.59
12182;BME280;6154;51.550;12.138;2023-02-17T10:36:56;100464.34;;;18.05;56.78
12182;BME280;6154;51.550;12.138;2023-02-17T10:39:33;100459.62;;;18.19;57.04
12182;BME280;6154;51.550;12.138;2023-02-17T10:42:04;100456.34;;;18.36;56.53
12182;BME280;6154;51.550;12.138;2023-02-17T10:44:36;100460.06;;;18.03;56.86
12182;BME280;6154;51.550;12.138;2023-02-17T10:47:04;100439.28;;;18.37;56.19
12182;BME280;6154;51.550;12.138;2023-02-17T10:49:38;100443.09;;;18.14;56.63
12182;BME280;6154;51.550;12.138;2023-02-17T10:52:10;100425.28;;;18.33;56.25
12182;BME280;6154;51.550;12.138;2023-02-17T10:54:43;100427.22;;;18.01;56.49
12182;BME280;6154;51.550;12.138;2023-02-17T10:57:15;100431.09;;;18.08;56.35
12182;BME280;6154;51.550;12.138;2023-02-17T10:59:45;100425.59;;;18.40;56.77
12182;BME280;6154;51.550;12.138;2023-02-17T11:02:19;100426.91;;;18.46;56.55
12182;BME280;6154;51.550;12.138;2023-02-17T11:04:51;100434.34;;;17.91;56.20
12182;BME280;6154;51.550;12.138;2023-02-17T11:07:29;100420.69;;;18.15;56.64
12182;BME280;6154;51.550;12.138;2023-02-17T11:09:59;100428.78;;;18.24;56.35
12182;BME280;6154;51.550;12.138;2023-02-17T11:12:33;100416.28;;;18.34;56.54
12182;BME280;6154;51.550;12.138;2023-02-17T11:15:03;100405.81;;;18.31;56.71
12182;BME280;6154;51.550;12.138;2023-02-17T11:17:34;100406.13;;;18.38;56.29
12182;BME280;6154;51.550;12.138;2023-02-17T11:20:07;100392.22;;;18.23;56.20
12182;BME280;6154;51.550;12.138;2023-02-17T11:23:00;100408.50;;;18.31;56.62
12182;BME280;6154;51.550;12.138;2023-02-17T11:25:31;100406.16;;;18.48;56.20
12182;BME280;6154;51.550;12.138;2023-02-17T11:28:01;100393.75;;;18.47;56.26
12182;BME280;6154;51.550;12.138;2023-02-17T11:30:31;100387.75;;;18.64;56.53
12182;BME280;6154;51.550;12.138;2023-02-17T11:33:10;100381.50;;;18.23;56.50
12182;BME280;6154;51.550;12.138;2023-02-17T11:35:48;100373.22;;;18.26;56.05
12182;BME280;6154;51.550;12.138;2023-02-17T11:38:19;100343.78;;;18.36;56.51
12182;BME280;6154;51.550;12.138;2023-02-17T11:40:54;100358.78;;;18.48;56.39
12182;BME280;6154;51.550;12.138;2023-02-17T11:43:22;100341.41;;;18.43;56.30
12182;BME280;6154;51.550;12.138;2023-02-17T11:45:57;100344.25;;;18.51;56.33
12182;BME280;6154;51.550;12.138;2023-02-17T11:48:43;100335.37;;;18.60;56.50
12182;BME280;6154;51.550;12.138;2023-02-17T11:51:20;100333.59;;;18.70;55.74
12182;BME280;6154;51.550;12.138;2023-02-17T11:53:58;100318.94;;;18.74;56.19
12182;BME280;6154;51.550;12.138;2023-02-17T11:56:32;100306.50;;;18.73;56.27
12182;BME280;6154;51.550;12.138;2023-02-17T11:59:21;100302.63;;;18.37;56.70
12182;BME280;6154;51.550;12.138;2023-02-17T12:02:10;100298.59;;;18.81;55.68
12182;BME280;6154;51.550;12.138;2023-02-17T12:04:50;100296.38;;;18.86;55.75
12182;BME280;6154;51.550;12.138;2023-02-17T12:07:51;100298.69;;;18.60;56.67
12182;BME280;6154;51.550;12.138;2023-02-17T12:10:30;100295.72;;;18.44;56.22
12182;BME280;6154;51.550;12.138;2023-02-17T12:13:16;100302.88;;;18.24;57.12
12182;BME280;6154;51.550;12.138;2023-02-17T12:15:54;100285.28;;;18.51;56.44
12182;BME280;6154;51.550;12.138;2023-02-17T12:18:40;100286.03;;;18.72;56.72
12182;BME280;6154;51.550;12.138;2023-02-17T12:21:18;100289.78;;;18.41;57.18
12182;BME280;6154;51.550;12.138;2023-02-17T12:24:06;100284.28;;;18.42;57.34
12182;BME280;6154;51.550;12.138;2023-02-17T12:26:44;100275.22;;;18.24;56.73
12182;BME280;6154;51.550;12.138;2023-02-17T12:29:24;100277.25;;;18.60;56.98
12182;BME280;6154;51.550;12.138;2023-02-17T12:32:19;100280.78;;;18.61;56.67
12182;BME280;6154;51.550;12.138;2023-02-17T12:34:54;100290.28;;;18.15;57.19
12182;BME280;6154;51.550;12.138;2023-02-17T12:37:29;100282.09;;;18.76;56.73
12182;BME280;6154;51.550;12.138;2023-02-17T12:40:02;100267.84;;;18.66;56.52
12182;BME280;6154;51.550;12.138;2023-02-17T12:42:34;100269.78;;;18.45;57.11
12182;BME280;6154;51.550;12.138;2023-02-17T12:45:05;100255.50;;;18.63;56.90
12182;BME280;6154;51.550;12.138;2023-02-17T12:47:38;100269.88;;;18.33;56.59
12182;BME280;6154;51.550;12.138;2023-02-17T12:50:15;100256.22;;;18.36;57.32
12182;BME280;6154;51.550;12.138;2023-02-17T12:52:49;100245.97;;;18.71;56.73
12182;BME280;6154;51.550;12.138;2023-02-17T12:55:24;100252.56;;;18.57;56.69
12182;BME280;6154;51.550;12.138;2023-02-17T12:57:56;100248.47;;;18.62;56.63
12182;BME280;6154;51.550;12.138;2023-02-17T13:00:31;100229.88;;;18.71;57.11
12182;BME280;6154;51.550;12.138;2023-02-17T13:03:02;100238.19;;;18.58;56.52
12182;BME280;6154;51.550;12.138;2023-02-17T13:05:36;100228.44;;;18.57;56.81
12182;BME280;6154;51.550;12.138;2023-02-17T13:08:10;100226.63;;;18.67;56.31
12182;BME280;6154;51.550;12.138;2023-02-17T13:10:43;100236.94;;;18.81;56.49
12182;BME280;6154;51.550;12.138;2023-02-17T13:13:13;100228.03;;;18.81;56.50
12182;BME280;6154;51.550;12.138;2023-02-17T13:16:00;100232.16;;;18.75;56.01